sensor_id;sensor_type;location;lat;lon;timestamp;P1;durP1;ratioP1;P2;durP2;ratioP2
4732;SDS011;2380;53.668;10.008;2022-08-01T00:01:53;26.17;;;17.53;;
4732;SDS011;2380;53.668;10.008;2022-08-01T00:04:25;26.50;;;17.43;;
4732;SDS011;2380;53.668;10.008;2022-08-01T00:06:54;25.20;;;17.20;;
4732;SDS011;2380;53.668;10.008;2022-08-01T00:09:24;25.17;;;17.73;;
4732;SDS011;2380;53.668;10.008;2022-08-01T00:11:54;24.67;;;16.77;;
4732;SDS011;2380;53.668;10.008;2022-08-01T00:14:25;25.80;;;17.53;;
4732;SDS011;2380;53.668;10.008;2022-08-01T00:17:00;24.27;;;17.37;;
4732;SDS011;2380;53.668;10.008;2022-08-01T00:19:33;25.97;;;18.67;;
4732;SDS011;2380;53.668;10.008;2022-08-01T00:22:03;22.80;;;16.87;;
4732;SDS011;2380;53.668;10.008;2022-08-01T00:24:33;24.03;;;17.83;;
4732;SDS011;2380;53.668;10.008;2022-08-01T00:27:02;26.20;;;17.70;;
4732;SDS011;2380;53.668;10.008;2022-08-01T00:29:32;23.50;;;16.60;;
4732;SDS011;2380;53.668;10.008;2022-08-01T00:32:25;25.10;;;17.53;;
4732;SDS011;2380;53.668;10.008;2022-08-01T00:34:54;25.17;;;17.43;;
4732;SDS011;2380;53.668;10.008;2022-08-01T00:37:24;28.20;;;16.73;;
4732;SDS011;2380;53.668;10.008;2022-08-01T00:39:54;28.03;;;17.43;;
4732;SDS011;2380;53.668;10.008;2022-08-01T00:42:23;26.10;;;18.20;;
4732;SDS011;2380;53.668;10.008;2022-08-01T00:44:53;27.70;;;16.57;;
4732;SDS011;2380;53.668;10.008;2022-08-01T00:47:25;26.67;;;17.10;;
4732;SDS011;2380;53.668;10.008;2022-08-01T00:49:54;27.40;;;17.10;;
4732;SDS011;2380;53.668;10.008;2022-08-01T00:52:24;30.13;;;17.07;;
4732;SDS011;2380;53.668;10.008;2022-08-01T00:54:53;24.87;;;16.23;;
4732;SDS011;2380;53.668;10.008;2022-08-01T00:57:23;24.40;;;15.20;;
4732;SDS011;2380;53.668;10.008;2022-08-01T01:00:13;31.73;;;16.40;;
4732;SDS011;2380;53.668;10.008;2022-08-01T01:02:46;27.63;;;15.83;;
4732;SDS011;2380;53.668;10.008;2022-08-01T01:05:15;24.53;;;15.47;;
4732;SDS011;2380;53.668;10.008;2022-08-01T01:07:47;23.13;;;14.83;;
4732;SDS011;2380;53.668;10.008;2022-08-01T01:10:20;27.73;;;16.40;;
4732;SDS011;2380;53.668;10.008;2022-08-01T01:12:54;23.53;;;15.57;;
4732;SDS011;2380;53.668;10.008;2022-08-01T01:15:33;22.47;;;15.73;;
4732;SDS011;2380;53.668;10.008;2022-08-01T01:18:09;26.90;;;14.90;;
4732;SDS011;2380;53.668;10.008;2022-08-01T01:20:41;24.80;;;15.20;;
4732;SDS011;2380;53.668;10.008;2022-08-01T01:23:24;27.30;;;15.57;;
4732;SDS011;2380;53.668;10.008;2022-08-01T01:26:02;24.00;;;14.77;;
4732;SDS011;2380;53.668;10.008;2022-08-01T01:28:40;22.23;;;14.20;;
4732;SDS011;2380;53.668;10.008;2022-08-01T01:31:27;25.17;;;15.97;;
4732;SDS011;2380;53.668;10.008;2022-08-01T01:33:58;25.70;;;15.13;;
4732;SDS011;2380;53.668;10.008;2022-08-01T01:36:29;27.23;;;16.10;;
4732;SDS011;2380;53.668;10.008;2022-08-01T01:39:00;29.60;;;16.53;;
4732;SDS011;2380;53.668;10.008;2022-08-01T01:41:29;24.10;;;15.00;;
4732;SDS011;2380;53.668;10.008;2022-08-01T01:44:02;24.37;;;14.73;;
4732;SDS011;2380;53.668;10.008;2022-08-01T01:46:33;28.30;;;15.60;;
4732;SDS011;2380;53.668;10.008;2022-08-01T01:49:04;28.17;;;15.60;;
4732;SDS011;2380;53.668;10.008;2022-08-01T01:51:36;21.40;;;13.30;;
4732;SDS011;2380;53.668;10.008;2022-08-01T01:54:06;25.40;;;14.80;;
4732;SDS011;2380;53.668;10.008;2022-08-01T01:56:37;56.80;;;27.87;;
4732;SDS011;2380;53.668;10.008;2022-08-01T01:59:18;38.13;;;18.20;;
4732;SDS011;2380;53.668;10.008;2022-08-01T02:01:51;24.40;;;15.70;;
4732;SDS011;2380;53.668;10.008;2022-08-01T02:04:31;23.17;;;13.90;;
4732;SDS011;2380;53.668;10.008;2022-08-01T02:07:01;27.07;;;14.97;;
4732;SDS011;2380;53.668;10.008;2022-08-01T02:09:32;24.07;;;13.17;;
4732;SDS011;2380;53.668;10.008;2022-08-01T02:12:03;25.30;;;14.57;;
4732;SDS011;2380;53.668;10.008;2022-08-01T02:14:37;49.23;;;29.00;;
4732;SDS011;2380;53.668;10.008;2022-08-01T02:17:08;29.10;;;17.20;;
4732;SDS011;2380;53.668;10.008;2022-08-01T02:19:39;25.60;;;15.93;;
4732;SDS011;2380;53.668;10.008;2022-08-01T02:22:09;25.70;;;14.87;;
4732;SDS011;2380;53.668;10.008;2022-08-01T02:24:42;25.33;;;16.13;;
4732;SDS011;2380;53.668;10.008;2022-08-01T02:27:14;25.40;;;15.40;;
4732;SDS011;2380;53.668;10.008;2022-08-01T02:29:52;22.00;;;14.60;;
4732;SDS011;2380;53.668;10.008;2022-08-01T02:32:25;26.13;;;14.50;;
4732;SDS011;2380;53.668;10.008;2022-08-01T02:34:56;19.23;;;13.93;;
4732;SDS011;2380;53.668;10.008;2022-08-01T02:37:26;23.80;;;14.87;;
4732;SDS011;2380;53.668;10.008;2022-08-01T02:39:58;19.77;;;14.03;;
4732;SDS011;2380;53.668;10.008;2022-08-01T02:42:29;19.20;;;13.40;;
4732;SDS011;2380;53.668;10.008;2022-08-01T02:45:01;27.37;;;15.17;;
4732;SDS011;2380;53.668;10.008;2022-08-01T02:47:32;22.90;;;14.50;;
4732;SDS011;2380;53.668;10.008;2022-08-01T02:50:02;27.80;;;13.30;;
4732;SDS011;2380;53.668;10.008;2022-08-01T02:52:34;21.20;;;13.93;;
4732;SDS011;2380;53.668;10.008;2022-08-01T02:55:04;20.07;;;13.30;;
4732;SDS011;2380;53.668;10.008;2022-08-01T02:57:35;22.90;;;13.30;;
4732;SDS011;2380;53.668;10.008;2022-08-01T03:00:20;19.33;;;12.90;;
4732;SDS011;2380;53.668;10.008;2022-08-01T03:02:51;20.90;;;13.37;;
4732;SDS011;2380;53.668;10.008;2022-08-01T03:05:22;22.27;;;13.90;;
4732;SDS011;2380;53.668;10.008;2022-08-01T03:07:53;18.00;;;14.80;;
4732;SDS011;2380;53.668;10.008;2022-08-01T03:10:29;20.77;;;14.37;;
4732;SDS011;2380;53.668;10.008;2022-08-01T03:13:00;23.40;;;13.40;;
4732;SDS011;2380;53.668;10.008;2022-08-01T03:15:33;20.47;;;12.67;;
4732;SDS011;2380;53.668;10.008;2022-08-01T03:18:07;23.67;;;12.87;;
4732;SDS011;2380;53.668;10.008;2022-08-01T03:20:38;24.23;;;13.60;;
4732;SDS011;2380;53.668;10.008;2022-08-01T03:23:08;24.37;;;13.80;;
4732;SDS011;2380;53.668;10.008;2022-08-01T03:25:40;19.23;;;12.23;;
4732;SDS011;2380;53.668;10.008;2022-08-01T03:28:12;19.63;;;13.57;;
4732;SDS011;2380;53.668;10.008;2022-08-01T03:30:45;17.50;;;13.30;;
4732;SDS011;2380;53.668;10.008;2022-08-01T03:33:16;23.40;;;13.47;;
4732;SDS011;2380;53.668;10.008;2022-08-01T03:35:46;15.63;;;11.97;;
4732;SDS011;2380;53.668;10.008;2022-08-01T03:38:19;18.87;;;12.07;;
4732;SDS011;2380;53.668;10.008;2022-08-01T03:40:51;22.20;;;12.47;;
4732;SDS011;2380;53.668;10.008;2022-08-01T03:43:25;16.87;;;12.40;;
4732;SDS011;2380;53.668;10.008;2022-08-01T03:46:03;19.07;;;11.90;;
4732;SDS011;2380;53.668;10.008;2022-08-01T03:48:35;19.60;;;11.53;;
4732;SDS011;2380;53.668;10.008;2022-08-01T03:51:07;19.20;;;13.00;;
4732;SDS011;2380;53.668;10.008;2022-08-01T03:53:38;17.23;;;11.50;;
4732;SDS011;2380;53.668;10.008;2022-08-01T03:56:10;14.50;;;11.00;;
4732;SDS011;2380;53.668;10.008;2022-08-01T03:58:42;20.50;;;13.67;;
4732;SDS011;2380;53.668;10.008;2022-08-01T04:01:18;15.30;;;11.83;;
4732;SDS011;2380;53.668;10.008;2022-08-01T04:03:48;35.93;;;21.97;;
4732;SDS011;2380;53.668;10.008;2022-08-01T04:06:18;21.03;;;13.20;;
4732;SDS011;2380;53.668;10.008;2022-08-01T04:08:47;19.93;;;10.47;;
4732;SDS011;2380;53.668;10.008;2022-08-01T04:11:24;13.00;;;10.97;;
4732;SDS011;2380;53.668;10.008;2022-08-01T04:13:56;18.43;;;11.30;;
4732;SDS011;2380;53.668;10.008;2022-08-01T04:16:28;14.20;;;8.73;;
4732;SDS011;2380;53.668;10.008;2022-08-01T04:18:58;13.53;;;10.40;;
4732;SDS011;2380;53.668;10.008;2022-08-01T04:21:28;13.07;;;9.70;;
4732;SDS011;2380;53.668;10.008;2022-08-01T04:23:59;12.13;;;9.87;;
4732;SDS011;2380;53.668;10.008;2022-08-01T04:26:31;13.33;;;9.57;;
4732;SDS011;2380;53.668;10.008;2022-08-01T04:29:02;12.57;;;8.63;;
4732;SDS011;2380;53.668;10.008;2022-08-01T04:31:35;13.83;;;8.73;;
4732;SDS011;2380;53.668;10.008;2022-08-01T04:34:06;12.23;;;8.40;;
4732;SDS011;2380;53.668;10.008;2022-08-01T04:36:36;11.73;;;8.50;;
4732;SDS011;2380;53.668;10.008;2022-08-01T04:39:08;10.60;;;7.67;;
4732;SDS011;2380;53.668;10.008;2022-08-01T04:41:38;16.87;;;7.90;;
4732;SDS011;2380;53.668;10.008;2022-08-01T04:44:08;11.33;;;7.23;;
4732;SDS011;2380;53.668;10.008;2022-08-01T04:46:40;9.87;;;7.53;;
4732;SDS011;2380;53.668;10.008;2022-08-01T04:49:10;13.23;;;9.80;;
4732;SDS011;2380;53.668;10.008;2022-08-01T04:51:49;12.90;;;8.30;;
4732;SDS011;2380;53.668;10.008;2022-08-01T04:54:24;28.23;;;17.27;;
4732;SDS011;2380;53.668;10.008;2022-08-01T04:56:53;14.30;;;7.60;;
4732;SDS011;2380;53.668;10.008;2022-08-01T04:59:26;36.70;;;25.17;;
4732;SDS011;2380;53.668;10.008;2022-08-01T05:02:11;13.60;;;9.40;;
4732;SDS011;2380;53.668;10.008;2022-08-01T05:04:42;9.30;;;6.63;;
4732;SDS011;2380;53.668;10.008;2022-08-01T05:07:12;12.60;;;6.80;;
4732;SDS011;2380;53.668;10.008;2022-08-01T05:09:42;26.40;;;19.13;;
4732;SDS011;2380;53.668;10.008;2022-08-01T05:12:12;17.80;;;13.00;;
4732;SDS011;2380;53.668;10.008;2022-08-01T05:14:42;14.63;;;10.27;;
4732;SDS011;2380;53.668;10.008;2022-08-01T05:17:14;5.67;;;4.93;;
4732;SDS011;2380;53.668;10.008;2022-08-01T05:19:44;7.37;;;6.00;;
4732;SDS011;2380;53.668;10.008;2022-08-01T05:22:13;9.83;;;6.90;;
4732;SDS011;2380;53.668;10.008;2022-08-01T05:24:43;26.63;;;16.63;;
4732;SDS011;2380;53.668;10.008;2022-08-01T05:27:14;7.13;;;5.60;;
4732;SDS011;2380;53.668;10.008;2022-08-01T05:29:44;8.50;;;5.03;;
4732;SDS011;2380;53.668;10.008;2022-08-01T05:32:16;7.10;;;4.80;;
4732;SDS011;2380;53.668;10.008;2022-08-01T05:34:47;15.90;;;10.17;;
4732;SDS011;2380;53.668;10.008;2022-08-01T05:37:17;12.33;;;6.60;;
4732;SDS011;2380;53.668;10.008;2022-08-01T05:39:46;17.20;;;12.27;;
4732;SDS011;2380;53.668;10.008;2022-08-01T05:42:16;12.33;;;6.80;;
4732;SDS011;2380;53.668;10.008;2022-08-01T05:44:45;27.73;;;12.60;;
4732;SDS011;2380;53.668;10.008;2022-08-01T05:47:19;17.27;;;9.53;;
4732;SDS011;2380;53.668;10.008;2022-08-01T05:49:48;5.87;;;3.70;;
4732;SDS011;2380;53.668;10.008;2022-08-01T05:52:18;7.77;;;4.20;;
4732;SDS011;2380;53.668;10.008;2022-08-01T05:54:48;6.60;;;4.00;;
4732;SDS011;2380;53.668;10.008;2022-08-01T05:57:17;8.27;;;3.87;;
4732;SDS011;2380;53.668;10.008;2022-08-01T05:59:48;5.67;;;3.80;;
4732;SDS011;2380;53.668;10.008;2022-08-01T06:02:20;9.27;;;4.30;;
4732;SDS011;2380;53.668;10.008;2022-08-01T06:04:49;7.73;;;4.57;;
4732;SDS011;2380;53.668;10.008;2022-08-01T06:07:19;8.77;;;4.57;;
4732;SDS011;2380;53.668;10.008;2022-08-01T06:09:48;7.47;;;4.03;;
4732;SDS011;2380;53.668;10.008;2022-08-01T06:12:18;9.63;;;4.00;;
4732;SDS011;2380;53.668;10.008;2022-08-01T06:14:48;11.07;;;4.37;;
4732;SDS011;2380;53.668;10.008;2022-08-01T06:17:20;7.00;;;4.40;;
4732;SDS011;2380;53.668;10.008;2022-08-01T06:19:50;8.87;;;4.47;;
4732;SDS011;2380;53.668;10.008;2022-08-01T06:22:19;17.97;;;4.97;;
4732;SDS011;2380;53.668;10.008;2022-08-01T06:24:49;11.67;;;4.40;;
4732;SDS011;2380;53.668;10.008;2022-08-01T06:27:19;9.30;;;4.83;;
4732;SDS011;2380;53.668;10.008;2022-08-01T06:29:51;16.23;;;5.30;;
4732;SDS011;2380;53.668;10.008;2022-08-01T06:32:23;12.20;;;4.70;;
4732;SDS011;2380;53.668;10.008;2022-08-01T06:34:53;21.00;;;4.60;;
4732;SDS011;2380;53.668;10.008;2022-08-01T06:37:23;9.60;;;4.80;;
4732;SDS011;2380;53.668;10.008;2022-08-01T06:39:59;18.37;;;5.40;;
4732;SDS011;2380;53.668;10.008;2022-08-01T06:42:29;11.40;;;5.00;;
4732;SDS011;2380;53.668;10.008;2022-08-01T06:45:01;18.00;;;5.43;;
4732;SDS011;2380;53.668;10.008;2022-08-01T06:47:34;10.13;;;4.40;;
4732;SDS011;2380;53.668;10.008;2022-08-01T06:50:03;12.17;;;5.80;;
4732;SDS011;2380;53.668;10.008;2022-08-01T06:52:36;12.43;;;5.30;;
4732;SDS011;2380;53.668;10.008;2022-08-01T06:55:07;11.83;;;5.47;;
4732;SDS011;2380;53.668;10.008;2022-08-01T06:57:44;10.90;;;5.27;;
4732;SDS011;2380;53.668;10.008;2022-08-01T07:00:17;15.77;;;8.37;;
4732;SDS011;2380;53.668;10.008;2022-08-01T07:02:52;12.70;;;7.50;;
4732;SDS011;2380;53.668;10.008;2022-08-01T07:05:22;11.03;;;7.37;;
4732;SDS011;2380;53.668;10.008;2022-08-01T07:07:52;25.73;;;9.83;;
4732;SDS011;2380;53.668;10.008;2022-08-01T07:10:22;21.57;;;8.60;;
4732;SDS011;2380;53.668;10.008;2022-08-01T07:12:52;18.57;;;9.43;;
4732;SDS011;2380;53.668;10.008;2022-08-01T07:15:21;10.63;;;7.27;;
4732;SDS011;2380;53.668;10.008;2022-08-01T07:17:55;17.53;;;7.30;;
4732;SDS011;2380;53.668;10.008;2022-08-01T07:20:27;22.23;;;7.17;;
4732;SDS011;2380;53.668;10.008;2022-08-01T07:23:15;24.60;;;8.20;;
4732;SDS011;2380;53.668;10.008;2022-08-01T07:25:55;21.17;;;7.80;;
4732;SDS011;2380;53.668;10.008;2022-08-01T07:28:26;18.70;;;7.60;;
4732;SDS011;2380;53.668;10.008;2022-08-01T07:30:56;23.43;;;7.57;;
4732;SDS011;2380;53.668;10.008;2022-08-01T07:33:28;20.17;;;6.50;;
4732;SDS011;2380;53.668;10.008;2022-08-01T07:36:14;17.97;;;7.00;;
4732;SDS011;2380;53.668;10.008;2022-08-01T07:38:44;17.40;;;6.20;;
4732;SDS011;2380;53.668;10.008;2022-08-01T07:41:13;24.40;;;7.03;;
4732;SDS011;2380;53.668;10.008;2022-08-01T07:43:43;20.10;;;6.33;;
4732;SDS011;2380;53.668;10.008;2022-08-01T07:46:23;19.13;;;6.50;;
4732;SDS011;2380;53.668;10.008;2022-08-01T07:48:56;20.40;;;5.67;;
4732;SDS011;2380;53.668;10.008;2022-08-01T07:51:25;22.03;;;6.70;;
4732;SDS011;2380;53.668;10.008;2022-08-01T07:53:55;13.00;;;5.43;;
4732;SDS011;2380;53.668;10.008;2022-08-01T07:56:25;19.53;;;5.60;;
4732;SDS011;2380;53.668;10.008;2022-08-01T07:58:54;24.00;;;6.90;;
4732;SDS011;2380;53.668;10.008;2022-08-01T08:01:24;14.47;;;5.40;;
4732;SDS011;2380;53.668;10.008;2022-08-01T08:03:56;13.90;;;5.10;;
4732;SDS011;2380;53.668;10.008;2022-08-01T08:06:25;26.27;;;6.27;;
4732;SDS011;2380;53.668;10.008;2022-08-01T08:08:55;47.27;;;13.47;;
4732;SDS011;2380;53.668;10.008;2022-08-01T08:11:24;29.50;;;8.43;;
4732;SDS011;2380;53.668;10.008;2022-08-01T08:13:55;10.07;;;4.23;;
4732;SDS011;2380;53.668;10.008;2022-08-01T08:16:24;19.07;;;5.83;;
4732;SDS011;2380;53.668;10.008;2022-08-01T08:18:57;11.90;;;5.13;;
4732;SDS011;2380;53.668;10.008;2022-08-01T08:21:26;12.60;;;5.33;;
4732;SDS011;2380;53.668;10.008;2022-08-01T08:23:56;12.37;;;4.73;;
4732;SDS011;2380;53.668;10.008;2022-08-01T08:26:38;15.60;;;4.60;;
4732;SDS011;2380;53.668;10.008;2022-08-01T08:29:08;12.03;;;4.63;;
4732;SDS011;2380;53.668;10.008;2022-08-01T08:31:38;11.37;;;4.43;;
4732;SDS011;2380;53.668;10.008;2022-08-01T08:34:20;11.23;;;4.60;;
4732;SDS011;2380;53.668;10.008;2022-08-01T08:36:50;14.80;;;4.90;;
4732;SDS011;2380;53.668;10.008;2022-08-01T08:39:20;10.97;;;4.67;;
4732;SDS011;2380;53.668;10.008;2022-08-01T08:41:51;12.10;;;4.90;;
4732;SDS011;2380;53.668;10.008;2022-08-01T08:44:20;13.20;;;4.57;;
4732;SDS011;2380;53.668;10.008;2022-08-01T08:46:50;14.73;;;4.27;;
4732;SDS011;2380;53.668;10.008;2022-08-01T08:49:26;10.53;;;4.00;;
4732;SDS011;2380;53.668;10.008;2022-08-01T08:52:01;11.33;;;4.57;;
4732;SDS011;2380;53.668;10.008;2022-08-01T08:54:34;10.80;;;3.80;;
4732;SDS011;2380;53.668;10.008;2022-08-01T08:57:06;10.50;;;3.80;;
4732;SDS011;2380;53.668;10.008;2022-08-01T08:59:37;8.70;;;3.87;;
4732;SDS011;2380;53.668;10.008;2022-08-01T09:02:07;20.90;;;3.70;;
4732;SDS011;2380;53.668;10.008;2022-08-01T09:04:41;12.30;;;3.70;;
4732;SDS011;2380;53.668;10.008;2022-08-01T09:07:11;16.30;;;3.90;;
4732;SDS011;2380;53.668;10.008;2022-08-01T09:09:40;6.00;;;3.10;;
4732;SDS011;2380;53.668;10.008;2022-08-01T09:12:12;13.37;;;4.27;;
4732;SDS011;2380;53.668;10.008;2022-08-01T09:14:46;8.50;;;3.27;;
4732;SDS011;2380;53.668;10.008;2022-08-01T09:17:16;15.10;;;3.60;;
4732;SDS011;2380;53.668;10.008;2022-08-01T09:19:49;15.60;;;4.03;;
4732;SDS011;2380;53.668;10.008;2022-08-01T09:22:23;9.33;;;3.70;;
4732;SDS011;2380;53.668;10.008;2022-08-01T09:24:56;40.00;;;10.53;;
4732;SDS011;2380;53.668;10.008;2022-08-01T09:27:27;17.70;;;3.90;;
4732;SDS011;2380;53.668;10.008;2022-08-01T09:30:06;23.03;;;6.33;;
4732;SDS011;2380;53.668;10.008;2022-08-01T09:32:52;13.27;;;3.37;;
4732;SDS011;2380;53.668;10.008;2022-08-01T09:35:26;8.27;;;3.30;;
4732;SDS011;2380;53.668;10.008;2022-08-01T09:38:12;14.90;;;3.80;;
4732;SDS011;2380;53.668;10.008;2022-08-01T09:40:46;10.03;;;2.90;;
4732;SDS011;2380;53.668;10.008;2022-08-01T09:43:17;12.30;;;2.73;;
4732;SDS011;2380;53.668;10.008;2022-08-01T09:45:48;12.87;;;3.93;;
4732;SDS011;2380;53.668;10.008;2022-08-01T09:48:24;12.30;;;2.50;;
4732;SDS011;2380;53.668;10.008;2022-08-01T09:50:58;10.50;;;2.33;;
4732;SDS011;2380;53.668;10.008;2022-08-01T09:53:42;13.60;;;2.43;;
4732;SDS011;2380;53.668;10.008;2022-08-01T09:56:18;14.00;;;3.33;;
4732;SDS011;2380;53.668;10.008;2022-08-01T09:58:49;8.03;;;2.40;;
4732;SDS011;2380;53.668;10.008;2022-08-01T10:01:27;13.13;;;3.30;;
4732;SDS011;2380;53.668;10.008;2022-08-01T10:04:06;9.03;;;2.83;;
4732;SDS011;2380;53.668;10.008;2022-08-01T10:06:40;8.13;;;2.60;;
4732;SDS011;2380;53.668;10.008;2022-08-01T10:09:12;8.70;;;2.60;;
4732;SDS011;2380;53.668;10.008;2022-08-01T10:11:42;13.63;;;2.83;;
4732;SDS011;2380;53.668;10.008;2022-08-01T10:14:13;14.60;;;2.90;;
4732;SDS011;2380;53.668;10.008;2022-08-01T10:16:46;8.93;;;2.47;;
4732;SDS011;2380;53.668;10.008;2022-08-01T10:19:21;11.67;;;2.10;;
4732;SDS011;2380;53.668;10.008;2022-08-01T10:21:57;10.40;;;2.40;;
4732;SDS011;2380;53.668;10.008;2022-08-01T10:24:27;11.80;;;2.23;;
4732;SDS011;2380;53.668;10.008;2022-08-01T10:26:59;12.03;;;3.10;;
4732;SDS011;2380;53.668;10.008;2022-08-01T10:29:40;12.63;;;2.37;;
4732;SDS011;2380;53.668;10.008;2022-08-01T10:32:31;13.70;;;3.90;;
4732;SDS011;2380;53.668;10.008;2022-08-01T10:35:05;10.97;;;2.60;;
4732;SDS011;2380;53.668;10.008;2022-08-01T10:50:21;7.80;;;2.47;;
4732;SDS011;2380;53.668;10.008;2022-08-01T10:53:03;9.77;;;2.63;;
4732;SDS011;2380;53.668;10.008;2022-08-01T10:55:45;20.80;;;10.03;;
4732;SDS011;2380;53.668;10.008;2022-08-01T10:58:19;8.53;;;2.67;;
4732;SDS011;2380;53.668;10.008;2022-08-01T11:04:01;9.20;;;2.63;;
4732;SDS011;2380;53.668;10.008;2022-08-01T11:06:45;7.13;;;1.80;;
4732;SDS011;2380;53.668;10.008;2022-08-01T11:09:23;12.27;;;5.17;;
4732;SDS011;2380;53.668;10.008;2022-08-01T11:12:04;13.20;;;3.83;;
4732;SDS011;2380;53.668;10.008;2022-08-01T11:17:39;32.47;;;11.03;;
4732;SDS011;2380;53.668;10.008;2022-08-01T11:20:14;13.10;;;2.40;;
4732;SDS011;2380;53.668;10.008;2022-08-01T11:26:09;19.20;;;4.33;;
4732;SDS011;2380;53.668;10.008;2022-08-01T11:28:43;10.10;;;2.03;;
4732;SDS011;2380;53.668;10.008;2022-08-01T11:31:34;15.57;;;2.63;;
4732;SDS011;2380;53.668;10.008;2022-08-01T11:34:04;10.27;;;2.50;;
4732;SDS011;2380;53.668;10.008;2022-08-01T11:36:35;19.43;;;2.57;;
4732;SDS011;2380;53.668;10.008;2022-08-01T11:39:23;9.67;;;2.37;;
4732;SDS011;2380;53.668;10.008;2022-08-01T11:41:57;25.10;;;8.73;;
4732;SDS011;2380;53.668;10.008;2022-08-01T11:44:48;17.00;;;5.97;;
4732;SDS011;2380;53.668;10.008;2022-08-01T11:47:18;8.07;;;2.23;;
4732;SDS011;2380;53.668;10.008;2022-08-01T11:53:01;17.33;;;3.10;;
4732;SDS011;2380;53.668;10.008;2022-08-01T11:55:33;8.57;;;1.93;;
4732;SDS011;2380;53.668;10.008;2022-08-01T11:58:06;15.87;;;3.53;;
4732;SDS011;2380;53.668;10.008;2022-08-01T12:00:53;12.50;;;4.23;;
4732;SDS011;2380;53.668;10.008;2022-08-01T12:03:23;24.03;;;4.73;;
4732;SDS011;2380;53.668;10.008;2022-08-01T12:05:59;10.90;;;2.00;;
4732;SDS011;2380;53.668;10.008;2022-08-01T12:08:31;7.67;;;2.00;;
4732;SDS011;2380;53.668;10.008;2022-08-01T12:11:03;11.20;;;2.40;;
4732;SDS011;2380;53.668;10.008;2022-08-01T12:13:42;7.40;;;1.83;;
4732;SDS011;2380;53.668;10.008;2022-08-01T12:16:13;6.53;;;1.93;;
4732;SDS011;2380;53.668;10.008;2022-08-01T12:18:43;8.63;;;1.77;;
4732;SDS011;2380;53.668;10.008;2022-08-01T12:21:12;9.07;;;2.47;;
4732;SDS011;2380;53.668;10.008;2022-08-01T12:23:42;10.80;;;1.97;;
4732;SDS011;2380;53.668;10.008;2022-08-01T12:26:11;10.20;;;2.80;;
4732;SDS011;2380;53.668;10.008;2022-08-01T12:28:59;8.10;;;1.40;;
4732;SDS011;2380;53.668;10.008;2022-08-01T12:31:32;7.70;;;1.90;;
4732;SDS011;2380;53.668;10.008;2022-08-01T12:36:57;8.93;;;3.20;;
4732;SDS011;2380;53.668;10.008;2022-08-01T12:39:29;11.27;;;2.27;;
4732;SDS011;2380;53.668;10.008;2022-08-01T12:42:06;9.43;;;1.87;;
4732;SDS011;2380;53.668;10.008;2022-08-01T12:44:39;14.03;;;2.20;;
4732;SDS011;2380;53.668;10.008;2022-08-01T12:47:09;8.83;;;1.63;;
4732;SDS011;2380;53.668;10.008;2022-08-01T12:49:40;8.70;;;1.70;;
4732;SDS011;2380;53.668;10.008;2022-08-01T12:52:11;8.97;;;2.73;;
4732;SDS011;2380;53.668;10.008;2022-08-01T12:57:35;4.97;;;1.60;;
4732;SDS011;2380;53.668;10.008;2022-08-01T13:00:13;10.37;;;1.77;;
4732;SDS011;2380;53.668;10.008;2022-08-01T13:02:45;6.20;;;1.50;;
4732;SDS011;2380;53.668;10.008;2022-08-01T13:05:15;7.60;;;1.53;;
4732;SDS011;2380;53.668;10.008;2022-08-01T13:07:46;7.83;;;1.60;;
4732;SDS011;2380;53.668;10.008;2022-08-01T13:10:24;7.93;;;2.00;;
4732;SDS011;2380;53.668;10.008;2022-08-01T13:12:56;5.03;;;1.70;;
4732;SDS011;2380;53.668;10.008;2022-08-01T13:15:30;6.00;;;1.73;;
4732;SDS011;2380;53.668;10.008;2022-08-01T13:18:23;9.73;;;4.40;;
4732;SDS011;2380;53.668;10.008;2022-08-01T13:21:12;6.23;;;1.90;;
4732;SDS011;2380;53.668;10.008;2022-08-01T13:26:39;12.40;;;2.00;;
4732;SDS011;2380;53.668;10.008;2022-08-01T13:29:10;7.13;;;3.67;;
4732;SDS011;2380;53.668;10.008;2022-08-01T13:31:43;8.47;;;2.80;;
4732;SDS011;2380;53.668;10.008;2022-08-01T13:34:14;6.77;;;2.47;;
4732;SDS011;2380;53.668;10.008;2022-08-01T13:36:44;5.53;;;2.10;;
4732;SDS011;2380;53.668;10.008;2022-08-01T13:39:15;7.90;;;4.67;;
4732;SDS011;2380;53.668;10.008;2022-08-01T13:41:57;4.70;;;1.80;;
4732;SDS011;2380;53.668;10.008;2022-08-01T13:44:26;7.83;;;1.53;;
4732;SDS011;2380;53.668;10.008;2022-08-01T13:46:59;7.67;;;1.43;;
4732;SDS011;2380;53.668;10.008;2022-08-01T13:49:41;9.53;;;2.03;;
4732;SDS011;2380;53.668;10.008;2022-08-01T13:52:10;10.43;;;2.93;;
4732;SDS011;2380;53.668;10.008;2022-08-01T13:54:40;5.97;;;2.10;;
4732;SDS011;2380;53.668;10.008;2022-08-01T13:57:09;6.93;;;2.03;;
4732;SDS011;2380;53.668;10.008;2022-08-01T13:59:40;8.47;;;2.17;;
4732;SDS011;2380;53.668;10.008;2022-08-01T14:02:12;8.93;;;1.80;;
4732;SDS011;2380;53.668;10.008;2022-08-01T14:04:42;5.73;;;1.60;;
4732;SDS011;2380;53.668;10.008;2022-08-01T14:07:11;13.53;;;2.60;;
4732;SDS011;2380;53.668;10.008;2022-08-01T14:09:41;6.60;;;1.97;;
4732;SDS011;2380;53.668;10.008;2022-08-01T14:12:30;4.60;;;1.40;;
4732;SDS011;2380;53.668;10.008;2022-08-01T14:15:00;9.13;;;1.50;;
4732;SDS011;2380;53.668;10.008;2022-08-01T14:17:32;5.47;;;2.10;;
4732;SDS011;2380;53.668;10.008;2022-08-01T14:20:03;8.37;;;1.90;;
4732;SDS011;2380;53.668;10.008;2022-08-01T14:22:33;8.30;;;1.93;;
4732;SDS011;2380;53.668;10.008;2022-08-01T14:25:05;12.57;;;5.27;;
4732;SDS011;2380;53.668;10.008;2022-08-01T14:27:35;7.73;;;1.47;;
4732;SDS011;2380;53.668;10.008;2022-08-01T14:30:06;9.50;;;3.40;;
4732;SDS011;2380;53.668;10.008;2022-08-01T14:32:40;6.37;;;1.77;;
4732;SDS011;2380;53.668;10.008;2022-08-01T14:35:09;12.27;;;2.80;;
4732;SDS011;2380;53.668;10.008;2022-08-01T14:37:39;6.27;;;1.33;;
4732;SDS011;2380;53.668;10.008;2022-08-01T14:40:08;6.90;;;1.40;;
4732;SDS011;2380;53.668;10.008;2022-08-01T14:42:38;11.40;;;1.77;;
4732;SDS011;2380;53.668;10.008;2022-08-01T14:45:11;6.80;;;1.80;;
4732;SDS011;2380;53.668;10.008;2022-08-01T14:47:44;8.93;;;2.57;;
4732;SDS011;2380;53.668;10.008;2022-08-01T14:50:14;7.30;;;1.57;;
4732;SDS011;2380;53.668;10.008;2022-08-01T14:52:44;77.43;;;44.63;;
4732;SDS011;2380;53.668;10.008;2022-08-01T14:55:14;10.13;;;3.50;;
4732;SDS011;2380;53.668;10.008;2022-08-01T14:57:44;23.63;;;11.40;;
4732;SDS011;2380;53.668;10.008;2022-08-01T15:00:13;8.87;;;1.80;;
4732;SDS011;2380;53.668;10.008;2022-08-01T15:02:46;9.03;;;2.03;;
4732;SDS011;2380;53.668;10.008;2022-08-01T15:05:17;15.90;;;8.70;;
4732;SDS011;2380;53.668;10.008;2022-08-01T15:07:48;7.70;;;1.80;;
4732;SDS011;2380;53.668;10.008;2022-08-01T15:10:19;8.80;;;2.10;;
4732;SDS011;2380;53.668;10.008;2022-08-01T15:12:49;16.10;;;3.23;;
4732;SDS011;2380;53.668;10.008;2022-08-01T15:15:19;7.20;;;2.57;;
4732;SDS011;2380;53.668;10.008;2022-08-01T15:17:51;5.60;;;2.50;;
4732;SDS011;2380;53.668;10.008;2022-08-01T15:20:21;9.70;;;2.83;;
4732;SDS011;2380;53.668;10.008;2022-08-01T15:22:50;18.00;;;3.40;;
4732;SDS011;2380;53.668;10.008;2022-08-01T15:25:20;14.10;;;5.17;;
4732;SDS011;2380;53.668;10.008;2022-08-01T15:27:50;11.17;;;1.83;;
4732;SDS011;2380;53.668;10.008;2022-08-01T15:30:19;8.67;;;2.17;;
4732;SDS011;2380;53.668;10.008;2022-08-01T15:32:55;11.97;;;4.37;;
4732;SDS011;2380;53.668;10.008;2022-08-01T15:35:25;11.50;;;2.47;;
4732;SDS011;2380;53.668;10.008;2022-08-01T15:37:54;6.00;;;1.73;;
4732;SDS011;2380;53.668;10.008;2022-08-01T15:40:24;8.47;;;4.23;;
4732;SDS011;2380;53.668;10.008;2022-08-01T15:42:54;6.93;;;2.10;;
4732;SDS011;2380;53.668;10.008;2022-08-01T15:45:25;10.90;;;2.50;;
4732;SDS011;2380;53.668;10.008;2022-08-01T15:48:15;5.77;;;1.90;;
4732;SDS011;2380;53.668;10.008;2022-08-01T15:50:45;14.37;;;2.77;;
4732;SDS011;2380;53.668;10.008;2022-08-01T15:53:14;8.87;;;2.17;;
4732;SDS011;2380;53.668;10.008;2022-08-01T15:55:44;7.20;;;2.70;;